LIEO/OLB METAR and TAF weather

Enter ICAO airport designator
Station Type Date Time Source
LIEO METAR 2019/12/08 06:50 UTC NOAA

LIEO 080650Z 24013KT CAVOK 12/09 Q1021


Station Type Date Time Source
LIEO Decoded METAR 2019/12/08 06:50 UTC NOAA

Olbia / Costa Smeralda, Italy (LIEO) 40-54N 009-31E 13M
Dec 08, 2019 - 01:50 AM EST / 2019.12.08 0650 UTC
Wind: from the WSW (240 degrees) at 15 MPH (13 KT):0
Visibility: greater than 7 mile(s):0
Temperature: 53 F (12 C)
Dew Point: 48 F (9 C)
Relative Humidity: 81%
Pressure (altimeter): 30.15 in. Hg (1021 hPa)
ob: LIEO 080650Z 24013KT CAVOK 12/09 Q1021
cycle: 7

Station Type Date Time Source
LIEO TAF 2019/12/08 06:21 UTC NOAA

TAF LIEO 080500Z 0806/0906 26010KT 9999 SCT020

Example: see airport list